Time;durP1;ratioP1;P1;durP2;ratioP2;P2;SDS_P1;SDS_P2;PMS_P1;PMS_P2;Temp;Humidity;BMP_temperature;BMP_pressure;BME280_temperature;BME280_humidity;BME280_pressure;Samples;Min_cycle;Max_cycle;Signal;HPM_P1;HPM_P2
2021/12/09 00:02:20;;;;;;;17.10;5.70;;;5.80;74.10;;;;;;5033435;28;20109;-72
2021/12/09 00:04:47;;;;;;;12.10;5.13;;;5.80;74.20;;;;;;5031150;28;20045;-72
2021/12/09 00:07:14;;;;;;;9.70;5.73;;;5.80;74.20;;;;;;5056230;28;20037;-71
2021/12/09 00:09:39;;;;;;;10.83;4.77;;;5.80;74.30;;;;;;5030513;28;20042;-72
2021/12/09 00:12:07;;;;;;;12.13;5.77;;;5.70;74.20;;;;;;5033172;28;20032;-72
2021/12/09 00:14:34;;;;;;;11.43;5.53;;;5.70;74.30;;;;;;5034727;28;20030;-72
2021/12/09 00:17:05;;;;;;;11.63;4.93;;;5.70;74.30;;;;;;5034065;28;20021;-72
2021/12/09 00:19:30;;;;;;;10.77;5.60;;;5.70;74.30;;;;;;5033739;28;20355;-72
2021/12/09 00:21:58;;;;;;;12.13;5.17;;;5.70;75.00;;;;;;5037047;28;20029;-72
2021/12/09 00:24:24;;;;;;;13.37;5.50;;;5.70;74.40;;;;;;5034381;28;20462;-71
2021/12/09 00:26:50;;;;;;;10.53;5.00;;;5.60;74.50;;;;;;5065888;28;20095;-72
2021/12/09 00:29:16;;;;;;;14.87;5.97;;;5.60;74.40;;;;;;5030054;28;20021;-71
2021/12/09 00:31:43;;;;;;;10.43;5.60;;;5.60;74.40;;;;;;5026036;28;20059;-71
2021/12/09 00:34:09;;;;;;;10.53;5.27;;;5.60;74.40;;;;;;5030675;28;20021;-71
2021/12/09 00:36:40;;;;;;;9.40;5.10;;;5.60;74.40;;;;;;5034111;28;20040;-71
2021/12/09 00:39:08;;;;;;;13.85;5.20;;;5.60;74.30;;;;;;5049293;28;20095;-71
2021/12/09 00:41:34;;;;;;;12.40;5.37;;;5.60;74.30;;;;;;5034595;28;20025;-71
2021/12/09 00:44:00;;;;;;;11.00;5.13;;;5.50;74.20;;;;;;5030785;28;20413;-71
2021/12/09 00:46:26;;;;;;;11.63;5.57;;;5.50;74.30;;;;;;5067275;28;20033;-71
2021/12/09 00:48:52;;;;;;;15.83;6.67;;;5.50;74.30;;;;;;5033918;28;20454;-71
2021/12/09 00:51:18;;;;;;;12.63;5.73;;;5.50;74.40;;;;;;5055490;28;20028;-72
2021/12/09 00:53:45;;;;;;;11.53;5.67;;;5.50;74.40;;;;;;5029384;28;20581;-72
2021/12/09 00:56:12;;;;;;;11.10;5.87;;;5.50;74.40;;;;;;5046899;28;20117;-71
2021/12/09 00:58:40;;;;;;;14.30;5.87;;;5.50;74.50;;;;;;5022722;28;20506;-71
2021/12/09 01:01:07;;;;;;;11.47;4.87;;;5.50;74.50;;;;;;5032394;28;20440;-72
2021/12/09 01:03:34;;;;;;;11.03;5.67;;;5.40;74.50;;;;;;5020506;28;20067;-72
2021/12/09 01:06:00;;;;;;;13.93;5.27;;;5.50;74.50;;;;;;5047957;28;20040;-72
2021/12/09 01:08:26;;;;;;;10.63;5.17;;;5.50;74.50;;;;;;5035353;28;20033;-71
2021/12/09 01:10:52;;;;;;;11.60;5.90;;;5.50;74.40;;;;;;5030357;28;20026;-71
2021/12/09 01:13:18;;;;;;;11.53;4.70;;;5.50;74.40;;;;;;5054227;28;20076;-72
2021/12/09 01:15:44;;;;;;;11.40;5.20;;;5.50;74.50;;;;;;5038157;28;20080;-72
2021/12/09 01:18:09;;;;;;;12.40;5.50;;;5.50;74.40;;;;;;5017125;28;20116;-72
2021/12/09 01:20:35;;;;;;;13.10;5.27;;;5.50;74.30;;;;;;5032215;28;20032;-72
2021/12/09 01:23:02;;;;;;;12.00;5.83;;;5.50;74.30;;;;;;5043505;28;20140;-71
2021/12/09 01:25:36;;;;;;;13.77;5.47;;;5.50;74.40;;;;;;5034445;28;20033;-72
2021/12/09 01:28:08;;;;;;;11.80;5.97;;;5.50;74.40;;;;;;5017900;28;20036;-72
2021/12/09 01:30:34;;;;;;;;;;;5.40;74.40;;;;;;5031733;28;20384;-72
2021/12/09 01:33:00;;;;;;;12.13;4.87;;;5.30;74.30;;;;;;5051819;28;19999;-72
2021/12/09 01:35:29;;;;;;;11.40;4.60;;;5.30;74.60;;;;;;5034092;28;20112;-72
2021/12/09 01:37:59;;;;;;;12.10;5.60;;;5.30;74.60;;;;;;5034257;28;20033;-71
2021/12/09 01:40:26;;;;;;;9.70;5.07;;;5.20;74.50;;;;;;5033123;28;20116;-71
2021/12/09 01:42:53;;;;;;;11.67;5.33;;;5.20;74.50;;;;;;5020334;28;20033;-71
2021/12/09 01:45:19;;;;;;;10.93;5.80;;;5.20;74.60;;;;;;5032995;28;20183;-71
2021/12/09 01:47:45;;;;;;;12.70;5.60;;;5.20;74.50;;;;;;5032693;28;20366;-71
2021/12/09 01:50:12;;;;;;;11.27;5.70;;;5.10;74.60;;;;;;5033705;28;20030;-72
2021/12/09 01:52:40;;;;;;;11.70;5.93;;;5.10;74.60;;;;;;5020233;28;20447;-71
2021/12/09 01:55:08;;;;;;;13.90;5.30;;;5.10;74.60;;;;;;5029118;28;20426;-71
2021/12/09 01:57:34;;;;;;;11.47;5.47;;;5.10;74.60;;;;;;5033301;28;20363;-71
2021/12/09 02:00:03;;;;;;;12.07;6.10;;;5.00;74.50;;;;;;5045032;28;20408;-72
2021/12/09 02:02:30;;;;;;;11.00;5.57;;;5.00;74.50;;;;;;5027002;28;20034;-71
2021/12/09 02:04:55;;;;;;;13.20;5.90;;;5.00;74.50;;;;;;5026446;28;20080;-72
2021/12/09 02:07:21;;;;;;;12.27;6.23;;;5.00;74.40;;;;;;5029180;28;20476;-71
2021/12/09 02:09:46;;;;;;;11.63;5.87;;;5.00;74.40;;;;;;5024578;28;20029;-71
2021/12/09 02:12:12;;;;;;;10.17;5.33;;;4.90;74.40;;;;;;5025894;28;20026;-71
2021/12/09 02:14:43;;;;;;;10.27;5.53;;;4.90;74.50;;;;;;5022342;28;20060;-71
2021/12/09 02:17:11;;;;;;;12.02;6.30;;;4.90;74.50;;;;;;5030760;28;20030;-72
2021/12/09 02:19:40;;;;;;;11.07;5.53;;;4.90;74.60;;;;;;5035535;28;20028;-71
2021/12/09 02:22:06;;;;;;;10.27;6.00;;;4.90;74.60;;;;;;5012340;28;20064;-71
2021/12/09 02:24:32;;;;;;;10.00;5.57;;;4.90;74.60;;;;;;5024867;28;20465;-72
2021/12/09 02:26:58;;;;;;;14.13;6.03;;;4.90;74.60;;;;;;5016506;28;20370;-71
2021/12/09 02:29:24;;;;;;;11.27;5.97;;;4.90;74.60;;;;;;5041716;28;20029;-71
2021/12/09 02:31:56;;;;;;;11.80;5.50;;;4.90;74.70;;;;;;5035112;28;20370;-71
2021/12/09 02:34:21;;;;;;;;;;;4.90;74.70;;;;;;5037657;28;20052;-71
2021/12/09 02:36:50;;;;;;;10.93;5.43;;;4.90;74.60;;;;;;5025138;28;19956;-71
2021/12/09 02:39:15;;;;;;;11.60;5.37;;;4.90;74.70;;;;;;5025955;28;21617;-72
2021/12/09 02:41:42;;;;;;;10.87;5.57;;;4.80;74.60;;;;;;5024407;28;20045;-71
2021/12/09 02:44:12;;;;;;;15.37;6.13;;;4.80;74.60;;;;;;5033735;28;20417;-71
2021/12/09 02:46:38;;;;;;;11.53;5.30;;;4.80;74.70;;;;;;5031464;28;20041;-71
2021/12/09 02:49:13;;;;;;;10.63;5.23;;;4.80;74.60;;;;;;5040372;28;20029;-71
2021/12/09 02:51:40;;;;;;;12.87;5.90;;;4.80;74.60;;;;;;5036204;28;20064;-71
2021/12/09 02:54:07;;;;;;;11.47;5.87;;;4.80;74.60;;;;;;5036533;28;20025;-71
2021/12/09 02:56:33;;;;;;;11.87;6.63;;;4.70;74.60;;;;;;5033836;28;20061;-71
2021/12/09 02:58:59;;;;;;;11.47;5.90;;;4.70;74.60;;;;;;5040872;28;20168;-71
2021/12/09 03:01:28;;;;;;;13.63;5.80;;;4.70;74.60;;;;;;5035872;28;20370;-71
2021/12/09 03:03:57;;;;;;;11.47;6.07;;;4.70;74.70;;;;;;5055916;28;20402;-71
2021/12/09 03:06:30;;;;;;;12.63;5.87;;;4.70;74.70;;;;;;5047045;28;20040;-71
2021/12/09 03:08:56;;;;;;;13.37;6.47;;;4.60;74.70;;;;;;5041510;28;20091;-71
2021/12/09 03:11:23;;;;;;;12.10;5.77;;;4.70;74.70;;;;;;5031364;28;20022;-71
2021/12/09 03:13:50;;;;;;;12.27;5.97;;;4.60;74.60;;;;;;5041145;28;20447;-71
2021/12/09 03:16:19;;;;;;;11.27;5.57;;;4.60;74.60;;;;;;5031646;28;20091;-71
2021/12/09 03:18:52;;;;;;;12.47;5.83;;;4.60;74.60;;;;;;5037356;28;20320;-71
2021/12/09 03:21:29;;;;;;;12.93;5.50;;;4.60;74.60;;;;;;5027520;28;20022;-71
2021/12/09 03:23:56;;;;;;;10.33;5.90;;;4.50;74.60;;;;;;5027560;28;20045;-71
2021/12/09 03:26:29;;;;;;;15.73;6.10;;;4.50;74.60;;;;;;5040803;28;20113;-71
2021/12/09 03:28:57;;;;;;;12.83;6.03;;;4.50;74.60;;;;;;5035274;28;20041;-71
2021/12/09 03:31:22;;;;;;;11.53;6.07;;;4.50;74.60;;;;;;5027824;28;20052;-71
2021/12/09 03:33:48;;;;;;;10.57;5.77;;;4.40;74.50;;;;;;5021589;28;20037;-71
2021/12/09 03:36:14;;;;;;;12.47;6.07;;;4.40;74.60;;;;;;5047762;28;20037;-71
2021/12/09 03:38:40;;;;;;;11.80;6.27;;;4.40;74.60;;;;;;5021240;28;20025;-71
2021/12/09 03:41:06;;;;;;;11.73;5.83;;;4.40;74.60;;;;;;5046154;28;20100;-71
2021/12/09 03:43:32;;;;;;;12.10;5.63;;;4.40;74.60;;;;;;5033590;28;20363;-71
2021/12/09 03:46:00;;;;;;;9.13;5.50;;;4.40;74.60;;;;;;5034624;28;20191;-71
2021/12/09 03:48:27;;;;;;;10.47;5.70;;;4.40;74.60;;;;;;5030783;28;20117;-71
2021/12/09 03:50:55;;;;;;;13.23;5.57;;;4.40;74.60;;;;;;5034905;28;20398;-71
2021/12/09 03:53:21;;;;;;;9.80;5.13;;;4.30;74.50;;;;;;5033859;28;20059;-71
2021/12/09 03:55:47;;;;;;;11.20;5.70;;;4.30;74.60;;;;;;5032913;28;20081;-71
2021/12/09 03:58:13;;;;;;;13.23;6.03;;;4.30;74.60;;;;;;5033833;28;20458;-71
2021/12/09 04:00:39;;;;;;;11.00;5.90;;;4.30;74.60;;;;;;5034578;28;20040;-71
2021/12/09 04:03:06;;;;;;;10.77;5.63;;;4.30;74.60;;;;;;5018279;28;20037;-71
2021/12/09 04:05:32;;;;;;;13.57;6.17;;;4.30;74.60;;;;;;5032111;28;20048;-71
2021/12/09 04:07:58;;;;;;;11.90;5.77;;;4.30;74.60;;;;;;5034546;28;20450;-71
2021/12/09 04:10:24;;;;;;;12.60;6.13;;;4.30;75.30;;;;;;5010127;28;20090;-71
2021/12/09 04:12:50;;;;;;;12.47;6.27;;;4.30;74.70;;;;;;5034906;28;20034;-71
2021/12/09 04:15:16;;;;;;;13.73;6.37;;;4.20;74.60;;;;;;5034332;28;20025;-71
2021/12/09 04:17:42;;;;;;;10.90;5.47;;;4.20;74.60;;;;;;5035465;28;20103;-71
2021/12/09 04:20:09;;;;;;;10.30;5.40;;;4.20;74.60;;;;;;5021798;28;20052;-71
2021/12/09 04:22:35;;;;;;;11.70;6.27;;;4.20;74.60;;;;;;5030644;28;20418;-72
2021/12/09 04:25:01;;;;;;;10.57;5.57;;;4.20;74.60;;;;;;5014200;28;20037;-71
2021/12/09 04:27:27;;;;;;;11.93;6.43;;;4.20;74.60;;;;;;5029092;28;20120;-71
2021/12/09 04:29:53;;;;;;;12.13;6.00;;;4.20;74.70;;;;;;5036777;28;20030;-71
2021/12/09 04:32:20;;;;;;;12.87;6.17;;;4.20;74.70;;;;;;5031267;28;20080;-71
2021/12/09 04:34:46;;;;;;;12.43;6.50;;;4.10;74.60;;;;;;5031309;28;20022;-71
2021/12/09 04:37:12;;;;;;;14.20;6.17;;;4.10;74.60;;;;;;5028241;28;20037;-71
2021/12/09 04:39:38;;;;;;;14.67;6.33;;;4.10;74.60;;;;;;5029214;28;20076;-71
2021/12/09 04:42:06;;;;;;;13.30;5.47;;;4.10;74.60;;;;;;5035646;28;20056;-71
2021/12/09 04:44:32;;;;;;;10.23;5.87;;;4.10;74.60;;;;;;5038742;28;20454;-71
2021/12/09 04:47:00;;;;;;;10.27;5.60;;;4.10;74.60;;;;;;5023523;28;20358;-71
2021/12/09 04:49:27;;;;;;;10.57;5.50;;;4.10;74.60;;;;;;5029099;28;20026;-71
2021/12/09 04:51:52;;;;;;;12.73;5.53;;;4.10;74.70;;;;;;5028092;28;20021;-71
2021/12/09 04:54:18;;;;;;;14.87;6.30;;;4.10;74.70;;;;;;5030912;28;20096;-71
2021/12/09 04:56:45;;;;;;;13.43;6.33;;;4.10;74.80;;;;;;5019215;28;20032;-71
2021/12/09 04:59:10;;;;;;;12.33;5.80;;;4.10;74.90;;;;;;5034131;28;20104;-71
2021/12/09 05:01:37;;;;;;;14.10;6.27;;;4.10;74.90;;;;;;5025283;28;20117;-71
2021/12/09 05:04:03;;;;;;;13.20;6.17;;;4.10;74.80;;;;;;5032875;28;20079;-71
2021/12/09 05:06:29;;;;;;;13.67;6.87;;;4.10;74.90;;;;;;5026934;28;20052;-71
2021/12/09 05:08:57;;;;;;;12.93;6.17;;;4.10;74.90;;;;;;5029254;28;20029;-71
2021/12/09 05:11:56;;;;;;;14.30;6.00;;;4.10;74.80;;;;;;5027893;28;20022;-71
2021/12/09 05:14:20;;;;;;;11.83;5.63;;;4.00;74.80;;;;;;5028912;28;20049;-71
2021/12/09 05:16:49;;;;;;;9.37;4.80;;;4.00;74.90;;;;;;5031047;28;20030;-71
2021/12/09 05:19:15;;;;;;;13.07;6.63;;;4.00;74.90;;;;;;5013099;28;20669;-71
2021/12/09 05:21:40;;;;;;;11.87;5.77;;;4.00;74.90;;;;;;5025060;28;20026;-71
2021/12/09 05:24:12;;;;;;;11.73;5.70;;;4.00;75.00;;;;;;5045823;28;20032;-71
2021/12/09 05:26:44;;;;;;;12.05;6.18;;;4.00;75.00;;;;;;5019415;28;20478;-71
2021/12/09 05:29:11;;;;;;;11.40;5.97;;;4.00;75.00;;;;;;5050049;28;20383;-71
2021/12/09 05:34:23;;;;;;;12.00;5.73;;;4.00;75.10;;;;;;5048071;28;20602;-71
2021/12/09 05:36:49;;;;;;;14.03;6.33;;;4.00;75.00;;;;;;5025619;28;20029;-71
2021/12/09 05:39:15;;;;;;;10.47;5.27;;;4.00;75.10;;;;;;5042966;28;20035;-71
2021/12/09 05:41:42;;;;;;;11.30;6.03;;;4.00;75.00;;;;;;5038914;28;20399;-71
2021/12/09 05:44:11;;;;;;;13.17;5.90;;;4.00;75.00;;;;;;5065044;28;20048;-70
2021/12/09 05:46:40;;;;;;;11.30;5.30;;;3.90;75.00;;;;;;5026820;28;20041;-70
2021/12/09 05:49:06;;;;;;;9.33;5.50;;;4.00;75.10;;;;;;5033276;28;20033;-70
2021/12/09 05:51:32;;;;;;;11.30;6.27;;;3.90;75.00;;;;;;5022498;28;20064;-71
2021/12/09 05:53:58;;;;;;;10.60;5.73;;;3.90;75.00;;;;;;5023730;28;20029;-70
2021/12/09 05:56:24;;;;;;;13.37;6.37;;;3.90;75.10;;;;;;5022758;28;20034;-71
2021/12/09 05:58:50;;;;;;;11.23;5.10;;;3.90;75.00;;;;;;5033655;28;20036;-70
2021/12/09 06:01:15;;;;;;;10.80;5.20;;;3.90;75.10;;;;;;5030753;28;20425;-70
2021/12/09 06:03:41;;;;;;;12.47;6.70;;;3.90;75.10;;;;;;5029874;28;20338;-71
2021/12/09 06:06:08;;;;;;;13.73;6.13;;;3.90;75.10;;;;;;5070252;28;20037;-71
2021/12/09 06:08:36;;;;;;;10.37;5.60;;;3.90;75.20;;;;;;5045513;28;20499;-71
2021/12/09 06:11:04;;;;;;;11.33;5.37;;;3.90;75.20;;;;;;5057447;28;20398;-71
2021/12/09 06:13:31;;;;;;;14.13;5.20;;;3.90;75.10;;;;;;5057043;28;20052;-70
2021/12/09 06:15:58;;;;;;;11.90;6.37;;;3.90;75.20;;;;;;5073773;28;20400;-71
2021/12/09 06:18:23;;;;;;;11.73;6.03;;;3.90;75.10;;;;;;5057093;28;20057;-71
2021/12/09 06:20:49;;;;;;;11.87;6.07;;;3.90;75.20;;;;;;5056671;28;20079;-71
2021/12/09 06:23:16;;;;;;;16.23;6.40;;;3.90;75.10;;;;;;5056802;28;20079;-71
2021/12/09 06:25:42;;;;;;;12.27;6.17;;;3.90;75.10;;;;;;5056803;28;20430;-71
2021/12/09 06:28:08;;;;;;;14.07;5.97;;;3.90;75.10;;;;;;5057278;28;20114;-72
2021/12/09 06:30:33;;;;;;;10.60;4.83;;;3.90;75.10;;;;;;5054655;28;20103;-72
2021/12/09 06:32:59;;;;;;;11.63;5.50;;;3.90;75.10;;;;;;5090356;28;20040;-71
2021/12/09 06:35:28;;;;;;;12.37;5.50;;;3.90;75.20;;;;;;5040173;28;20430;-72
2021/12/09 06:37:56;;;;;;;11.80;5.27;;;3.90;75.20;;;;;;5055353;28;20025;-72
2021/12/09 06:40:23;;;;;;;10.57;5.33;;;3.90;75.20;;;;;;5057019;28;20521;-71
2021/12/09 06:42:51;;;;;;;12.00;5.30;;;3.90;75.20;;;;;;5057118;28;20451;-72
2021/12/09 06:45:18;;;;;;;13.27;5.13;;;3.90;75.20;;;;;;5056107;28;20025;-72
2021/12/09 06:47:44;;;;;;;10.00;5.50;;;3.90;75.20;;;;;;5056638;28;20036;-72
2021/12/09 06:50:12;;;;;;;13.63;5.07;;;4.00;75.20;;;;;;5056013;28;20116;-72
2021/12/09 06:52:38;;;;;;;13.13;5.07;;;4.00;75.30;;;;;;5055973;28;20033;-72
2021/12/09 06:55:06;;;;;;;11.67;5.47;;;4.00;75.30;;;;;;5055966;28;20036;-72
2021/12/09 06:57:31;;;;;;;12.83;5.07;;;4.00;75.30;;;;;;5056867;28;20060;-72
2021/12/09 06:59:57;;;;;;;11.83;4.00;;;4.10;75.20;;;;;;5053995;28;20489;-72
2021/12/09 07:02:22;;;;;;;11.37;4.60;;;4.10;75.20;;;;;;5056716;28;20095;-72
2021/12/09 07:04:48;;;;;;;9.13;4.57;;;4.10;75.20;;;;;;5072599;28;20028;-72
2021/12/09 07:07:14;;;;;;;11.83;4.30;;;4.10;75.30;;;;;;5054854;28;20053;-72
2021/12/09 07:09:40;;;;;;;11.40;4.20;;;4.20;75.40;;;;;;5052816;28;20025;-72
2021/12/09 07:12:07;;;;;;;15.47;3.93;;;4.20;75.50;;;;;;5056936;28;20025;-72
2021/12/09 07:14:33;;;;;;;11.83;3.87;;;4.20;75.30;;;;;;5055509;28;20377;-72
2021/12/09 07:17:00;;;;;;;13.03;4.07;;;4.20;75.40;;;;;;5055935;28;20366;-72
2021/12/09 07:19:26;;;;;;;11.37;4.07;;;4.20;75.60;;;;;;5054858;28;20043;-72
2021/12/09 07:21:51;;;;;;;11.93;3.70;;;4.20;75.70;;;;;;5039203;28;20038;-72
2021/12/09 07:24:17;;;;;;;10.83;4.07;;;4.30;75.80;;;;;;5017129;28;20030;-72
2021/12/09 07:26:43;;;;;;;15.53;3.90;;;4.30;75.70;;;;;;5016728;28;20026;-72
2021/12/09 07:29:09;;;;;;;9.97;3.93;;;4.30;75.70;;;;;;5016646;28;20036;-72
2021/12/09 07:31:35;;;;;;;10.83;4.13;;;4.30;75.70;;;;;;5018751;28;20059;-72
2021/12/09 07:34:00;;;;;;;12.57;3.90;;;4.30;75.70;;;;;;5054880;28;20036;-71
2021/12/09 07:36:26;;;;;;;9.50;3.83;;;4.30;75.70;;;;;;5055479;28;20112;-71
2021/12/09 07:38:52;;;;;;;11.27;4.50;;;4.20;75.70;;;;;;5056136;28;20025;-72
2021/12/09 07:41:19;;;;;;;10.63;3.80;;;4.20;75.70;;;;;;5038442;28;20464;-71
2021/12/09 07:43:45;;;;;;;10.13;4.00;;;4.20;75.70;;;;;;5055050;28;20389;-72
2021/12/09 07:46:11;;;;;;;10.60;4.33;;;4.20;75.70;;;;;;5055054;28;20033;-72
2021/12/09 07:48:37;;;;;;;10.73;4.67;;;4.20;75.70;;;;;;5054955;28;20146;-72
2021/12/09 07:51:02;;;;;;;11.83;4.43;;;4.20;75.80;;;;;;5054677;28;20041;-71
2021/12/09 07:53:28;;;;;;;10.37;4.43;;;4.20;75.80;;;;;;5054943;28;20029;-71
2021/12/09 07:55:55;;;;;;;10.97;4.47;;;4.20;75.90;;;;;;5056032;28;20362;-71
2021/12/09 07:58:21;;;;;;;10.67;4.73;;;4.20;75.90;;;;;;5036393;28;20029;-72
2021/12/09 08:00:47;;;;;;;10.77;5.40;;;4.20;75.80;;;;;;5054752;28;20033;-71
2021/12/09 08:03:13;;;;;;;10.50;5.50;;;4.20;75.80;;;;;;5042140;28;20039;-71
2021/12/09 08:05:42;;;;;;;10.87;4.83;;;4.20;75.80;;;;;;5007404;28;20030;-71
2021/12/09 08:08:08;;;;;;;13.33;6.93;;;4.20;75.70;;;;;;5033169;28;20116;-70
2021/12/09 08:10:34;;;;;;;12.43;5.60;;;4.20;75.80;;;;;;5035029;28;20108;-71
2021/12/09 08:13:00;;;;;;;12.00;6.90;;;4.30;75.80;;;;;;5033342;28;20565;-70
2021/12/09 08:15:32;;;;;;;13.03;6.63;;;4.20;75.80;;;;;;5016203;28;20618;-71
2021/12/09 08:18:01;;;;;;;26.27;8.25;;;4.30;75.80;;;;;;5015622;28;20030;-71
2021/12/09 08:20:30;;;;;;;13.80;7.00;;;4.30;75.80;;;;;;5030210;28;20125;-70
2021/12/09 08:22:56;;;;;;;14.27;6.87;;;4.30;75.80;;;;;;5055779;28;20068;-70
2021/12/09 08:25:22;;;;;;;13.07;6.93;;;4.40;75.80;;;;;;5030079;28;20045;-71
2021/12/09 08:27:49;;;;;;;13.70;6.90;;;4.40;75.70;;;;;;5027892;28;20037;-70
2021/12/09 08:30:18;;;;;;;10.43;5.20;;;4.40;75.70;;;;;;5027724;28;20494;-70
2021/12/09 08:32:44;;;;;;;13.47;6.10;;;4.50;75.70;;;;;;5039467;28;20386;-70
2021/12/09 08:35:09;;;;;;;15.10;5.23;;;4.50;75.70;;;;;;5078542;28;20033;-70
2021/12/09 08:37:35;;;;;;;13.87;4.87;;;4.50;75.70;;;;;;5053013;28;20036;-70
2021/12/09 08:40:02;;;;;;;11.60;4.20;;;4.60;75.80;;;;;;5028019;28;20471;-70
2021/12/09 08:42:28;;;;;;;11.20;4.10;;;4.60;75.90;;;;;;5047867;28;20033;-70
2021/12/09 08:44:54;;;;;;;11.37;5.00;;;4.70;75.80;;;;;;5023129;28;20041;-70
2021/12/09 08:47:20;;;;;;;11.37;3.77;;;4.80;75.80;;;;;;5064891;28;20041;-70
2021/12/09 08:49:46;;;;;;;10.03;4.03;;;4.90;75.80;;;;;;5029468;28;20121;-70
2021/12/09 08:52:13;;;;;;;8.57;3.60;;;5.00;75.80;;;;;;5033110;28;20027;-70
2021/12/09 08:54:38;;;;;;;11.40;3.97;;;5.00;75.80;;;;;;5033625;28;20042;-70
2021/12/09 08:57:04;;;;;;;10.47;3.70;;;5.10;75.70;;;;;;5029769;28;20030;-70
2021/12/09 08:59:31;;;;;;;9.43;3.53;;;5.30;75.70;;;;;;5019656;28;20025;-70
2021/12/09 09:01:56;;;;;;;11.30;4.53;;;5.30;75.60;;;;;;5033770;28;20116;-71
2021/12/09 09:04:22;;;;;;;13.30;4.17;;;5.40;75.70;;;;;;5034477;28;20124;-71
2021/12/09 09:06:53;;;;;;;10.57;4.17;;;5.40;75.80;;;;;;5037075;28;20069;-71
2021/12/09 09:09:19;;;;;;;9.80;4.07;;;5.40;75.90;;;;;;5049400;28;21090;-71
2021/12/09 09:11:44;;;;;;;10.07;3.93;;;5.40;75.90;;;;;;5039664;28;20108;-71
2021/12/09 09:14:10;;;;;;;14.73;4.80;;;5.40;76.00;;;;;;5026544;28;20018;-70
2021/12/09 09:16:38;;;;;;;10.67;4.90;;;5.40;76.10;;;;;;5013062;28;20026;-71
2021/12/09 09:19:04;;;;;;;12.70;4.50;;;5.40;76.20;;;;;;5014822;28;20014;-71
2021/12/09 09:21:31;;;;;;;9.97;4.00;;;5.50;76.30;;;;;;5033175;28;20028;-72
2021/12/09 09:23:56;;;;;;;11.67;4.00;;;5.50;76.20;;;;;;5026523;28;20037;-71
2021/12/09 09:26:22;;;;;;;12.20;5.13;;;5.50;76.20;;;;;;5032637;28;20105;-72
2021/12/09 09:28:48;;;;;;;13.17;4.17;;;5.60;76.20;;;;;;5033117;28;21365;-71
2021/12/09 09:31:14;;;;;;;12.97;4.30;;;5.60;76.20;;;;;;5034600;28;20045;-73
2021/12/09 09:33:40;;;;;;;10.67;4.10;;;5.60;76.20;;;;;;5025135;28;20049;-70
2021/12/09 09:36:06;;;;;;;10.10;4.13;;;5.70;76.20;;;;;;5035711;28;20459;-70
2021/12/09 09:38:32;;;;;;;12.37;3.93;;;5.70;76.20;;;;;;5037081;28;20531;-70
2021/12/09 09:41:08;;;;;;;9.63;3.93;;;5.70;76.20;;;;;;5074376;28;20472;-70
2021/12/09 09:46:27;;;;;;;15.50;4.73;;;5.80;76.20;;;;;;5037427;28;20037;-71
2021/12/09 09:48:55;;;;;;;12.10;4.80;;;5.80;76.30;;;;;;5033921;28;20127;-70
2021/12/09 09:51:22;;;;;;;11.90;4.77;;;5.80;76.40;;;;;;5025741;28;20033;-71
2021/12/09 09:53:49;;;;;;;10.67;4.57;;;5.80;76.40;;;;;;5021371;28;20048;-70
2021/12/09 09:56:19;;;;;;;9.97;4.73;;;5.90;76.50;;;;;;5051343;28;20135;-70
2021/12/09 09:58:47;;;;;;;14.07;4.70;;;5.90;76.60;;;;;;5054393;28;20446;-71
2021/12/09 10:01:13;;;;;;;10.80;4.70;;;5.90;76.30;;;;;;5033271;28;20092;-71
2021/12/09 10:03:45;;;;;;;15.43;5.37;;;6.00;76.40;;;;;;5030784;28;20029;-71
2021/12/09 10:06:12;;;;;;;9.53;4.00;;;6.00;76.40;;;;;;5021602;28;20034;-71
2021/12/09 10:08:38;;;;;;;10.77;4.53;;;6.00;76.40;;;;;;5035370;28;20029;-73
2021/12/09 10:11:04;;;;;;;10.77;4.67;;;6.00;76.40;;;;;;5027143;28;20103;-71
2021/12/09 10:13:32;;;;;;;14.43;4.80;;;6.00;76.50;;;;;;5021781;28;21425;-71
2021/12/09 10:15:59;;;;;;;11.63;4.93;;;6.00;76.50;;;;;;5028439;28;20025;-72
2021/12/09 10:18:38;;;;;;;11.73;4.80;;;6.00;76.60;;;;;;5020959;28;20058;-72
2021/12/09 10:21:07;;;;;;;13.70;4.03;;;6.00;76.60;;;;;;5028016;28;20454;-70
2021/12/09 10:23:39;;;;;;;12.27;4.90;;;6.00;76.60;;;;;;5044418;28;20030;-71
2021/12/09 10:26:19;;;;;;;9.63;4.50;;;6.00;76.50;;;;;;5009271;28;20108;-72
2021/12/09 10:28:52;;;;;;;10.53;4.50;;;6.10;76.50;;;;;;5055546;28;20029;-71
2021/12/09 10:31:27;;;;;;;11.37;4.30;;;6.10;76.40;;;;;;5018529;28;20050;-71
2021/12/09 10:34:05;;;;;;;11.93;4.83;;;6.10;76.30;;;;;;5036224;28;20017;-71
2021/12/09 10:37:01;;;;;;;13.47;5.07;;;6.10;76.30;;;;;;5044363;28;20061;-71
2021/12/09 10:39:41;;;;;;;11.43;5.37;;;6.20;76.30;;;;;;5028309;28;20033;-71
2021/12/09 10:42:14;;;;;;;13.70;4.80;;;6.20;76.30;;;;;;5052171;28;20029;-73
2021/12/09 10:44:47;;;;;;;11.63;4.50;;;6.20;76.30;;;;;;5024548;28;20041;-73
2021/12/09 10:47:24;;;;;;;16.73;5.13;;;6.20;76.30;;;;;;5022927;28;20037;-71
2021/12/09 10:50:15;;;;;;;15.80;5.13;;;6.30;76.30;;;;;;5053962;28;20034;-71
2021/12/09 10:52:48;;;;;;;10.93;5.17;;;6.30;76.30;;;;;;5035277;28;20021;-71
2021/12/09 10:55:36;;;;;;;10.73;4.40;;;6.30;76.30;;;;;;5041552;28;20091;-70
2021/12/09 10:58:10;;;;;;;9.57;5.03;;;6.20;76.30;;;;;;5016318;28;20034;-70
2021/12/09 11:00:41;;;;;;;11.53;4.93;;;6.20;76.40;;;;;;5057704;28;20032;-70
2021/12/09 11:03:13;;;;;;;10.90;4.57;;;6.20;76.50;;;;;;5017401;28;20026;-70
2021/12/09 11:05:50;;;;;;;12.77;5.33;;;6.30;76.70;;;;;;5027451;28;20427;-70
2021/12/09 11:08:28;;;;;;;13.50;5.27;;;6.30;76.70;;;;;;5063596;28;20021;-72
2021/12/09 11:11:00;;;;;;;13.20;5.30;;;6.30;76.70;;;;;;5018631;28;20065;-71
2021/12/09 11:13:53;;;;;;;12.30;5.67;;;6.30;76.60;;;;;;5031646;28;20033;-71
2021/12/09 11:16:32;;;;;;;12.67;6.13;;;6.30;76.60;;;;;;5054001;28;20369;-71
2021/12/09 11:19:08;;;;;;;11.70;6.80;;;6.30;76.60;;;;;;5035134;28;20095;-71
2021/12/09 11:21:40;;;;;;;10.90;5.87;;;6.40;76.70;;;;;;5055510;28;20033;-69
2021/12/09 11:24:12;;;;;;;12.13;5.93;;;6.40;76.70;;;;;;5032206;28;20369;-69
2021/12/09 11:26:58;;;;;;;14.43;7.03;;;6.40;76.70;;;;;;5035274;28;20331;-69
2021/12/09 11:29:26;;;;;;;13.73;6.03;;;6.50;76.70;;;;;;5032032;28;20150;-71
2021/12/09 11:32:00;;;;;;;15.60;7.27;;;6.50;76.70;;;;;;5040504;28;20076;-70
2021/12/09 11:35:01;;;;;;;11.83;6.53;;;6.50;76.70;;;;;;5033050;28;20044;-70
2021/12/09 11:40:01;;;;;;;18.53;7.20;;;6.50;76.80;;;;;;5029232;28;20107;-70
2021/12/09 11:42:34;;;;;;;12.10;6.63;;;6.50;76.80;;;;;;5035681;28;20374;-71
2021/12/09 11:44:59;;;;;;;11.23;6.10;;;6.50;76.80;;;;;;5013406;28;20025;-71
2021/12/09 11:47:25;;;;;;;11.87;6.43;;;6.50;76.90;;;;;;5035464;28;20037;-70
2021/12/09 11:49:51;;;;;;;15.80;7.30;;;6.60;76.90;;;;;;5032141;28;20040;-70
2021/12/09 11:52:20;;;;;;;13.00;6.70;;;6.60;76.90;;;;;;5034365;28;20025;-70
2021/12/09 11:55:01;;;;;;;15.17;6.57;;;6.60;76.90;;;;;;5025811;28;20041;-70
2021/12/09 11:57:41;;;;;;;13.52;6.55;;;6.70;77.00;;;;;;5035327;28;20045;-70
2021/12/09 12:12:19;;;;;;;12.03;6.60;;;6.80;76.80;;;;;;5023321;28;20103;-71
2021/12/09 12:14:48;;;;;;;13.53;6.67;;;6.80;76.80;;;;;;5035653;28;20340;-71
2021/12/09 12:17:28;;;;;;;16.53;7.60;;;6.70;76.80;;;;;;5044580;28;20498;-71
2021/12/09 12:23:31;;;;;;;16.87;7.50;;;6.80;77.00;;;;;;5052141;28;20477;-71
2021/12/09 12:28:55;;;;;;;11.57;7.27;;;6.90;76.90;;;;;;5111785;27;20740;-70
2021/12/09 12:40:40;;;;;;;13.80;6.53;;;6.90;76.90;;;;;;5099616;28;20353;-72
2021/12/09 12:43:17;;;;;;;12.47;6.73;;;6.90;76.90;;;;;;5104484;28;20032;-71
2021/12/09 12:51:20;;;;;;;10.10;5.93;;;7.00;76.90;;;;;;5111307;28;20358;-70
2021/12/09 12:53:49;;;;;;;10.20;6.37;;;7.00;76.80;;;;;;5100375;28;20024;-71
2021/12/09 12:56:25;;;;;;;11.07;6.33;;;7.00;76.80;;;;;;5110243;28;20032;-70
2021/12/09 12:59:16;;;;;;;9.77;5.77;;;7.00;76.80;;;;;;5110831;28;20024;-71
2021/12/09 13:02:11;;;;;;;12.70;7.10;;;7.10;76.80;;;;;;5076075;28;20031;-71
2021/12/09 13:08:01;;;;;;;11.13;6.57;;;7.10;76.80;;;;;;5104507;28;20027;-71
2021/12/09 13:10:30;;;;;;;15.27;6.83;;;7.00;76.80;;;;;;5085931;28;20104;-72
2021/12/09 13:14:05;;;;;;;11.03;6.13;;;7.10;76.80;;;;;;5102164;28;20032;-72
2021/12/09 13:19:16;;;;;;;13.87;6.73;;;7.10;76.70;;;;;;5110729;28;20399;-71
2021/12/09 13:21:49;;;;;;;15.03;7.63;;;7.10;76.70;;;;;;5097556;28;20028;-71
2021/12/09 13:24:54;;;;;;;11.43;5.50;;;7.10;76.80;;;;;;5119246;28;20071;-71
2021/12/09 13:36:05;;;;;;;11.03;6.30;;;7.10;76.80;;;;;;5112024;28;20510;-71
2021/12/09 13:47:05;;;;;;;9.27;5.67;;;7.10;76.90;;;;;;5097209;28;20445;-71
2021/12/09 13:54:08;;;;;;;11.47;7.60;;;7.10;77.60;;;;;;5080162;28;20119;-71
2021/12/09 13:54:58;;;;;;;12.40;5.87;;;7.10;77.00;;;;;;5076734;28;20219;-71
2021/12/09 13:57:41;;;;;;;11.63;6.43;;;7.00;77.00;;;;;;5077178;28;20146;-71
2021/12/09 14:00:30;;;;;;;13.77;6.93;;;7.00;77.00;;;;;;5096545;28;20111;-71
2021/12/09 14:03:15;;;;;;;11.63;7.40;;;7.00;77.00;;;;;;5090144;28;20024;-71
2021/12/09 14:05:55;;;;;;;10.67;6.83;;;7.00;77.10;;;;;;5075489;28;20035;-71